sensor_id;sensor_type;location;lat;lon;timestamp;pressure;altitude;pressure_sealevel;temperature
76901;BMP280;65859;43.020;25.096;2023-04-25T00:01:54;98529.28;;;12.80
76901;BMP280;65859;43.020;25.096;2023-04-25T00:04:20;98526.22;;;12.81
76901;BMP280;65859;43.020;25.096;2023-04-25T00:06:47;98526.00;;;12.67
76901;BMP280;65859;43.020;25.096;2023-04-25T00:09:14;98528.94;;;12.62
76901;BMP280;65859;43.020;25.096;2023-04-25T00:11:41;98511.78;;;12.40
76901;BMP280;65859;43.020;25.096;2023-04-25T00:14:07;98520.38;;;12.10
76901;BMP280;65859;43.020;25.096;2023-04-25T00:16:33;98506.38;;;11.98
76901;BMP280;65859;43.020;25.096;2023-04-25T00:19:01;98507.25;;;12.02
76901;BMP280;65859;43.020;25.096;2023-04-25T00:21:30;98512.63;;;12.05
76901;BMP280;65859;43.020;25.096;2023-04-25T00:23:57;98499.31;;;12.05
76901;BMP280;65859;43.020;25.096;2023-04-25T00:26:23;98507.78;;;12.50
76901;BMP280;65859;43.020;25.096;2023-04-25T00:28:51;98506.25;;;12.48
76901;BMP280;65859;43.020;25.096;2023-04-25T00:31:17;98505.00;;;12.85
76901;BMP280;65859;43.020;25.096;2023-04-25T00:33:43;98502.78;;;12.90
76901;BMP280;65859;43.020;25.096;2023-04-25T00:36:10;98499.81;;;12.92
76901;BMP280;65859;43.020;25.096;2023-04-25T00:38:36;98493.94;;;13.06
76901;BMP280;65859;43.020;25.096;2023-04-25T00:41:06;98478.94;;;12.74
76901;BMP280;65859;43.020;25.096;2023-04-25T00:43:33;98486.75;;;12.64
76901;BMP280;65859;43.020;25.096;2023-04-25T00:46:00;98491.56;;;12.78
76901;BMP280;65859;43.020;25.096;2023-04-25T00:48:27;98484.13;;;12.87
76901;BMP280;65859;43.020;25.096;2023-04-25T00:50:56;98470.75;;;13.06
76901;BMP280;65859;43.020;25.096;2023-04-25T00:53:26;98476.28;;;12.97
76901;BMP280;65859;43.020;25.096;2023-04-25T00:55:53;98464.81;;;12.93
76901;BMP280;65859;43.020;25.096;2023-04-25T00:58:21;98463.59;;;12.87
76901;BMP280;65859;43.020;25.096;2023-04-25T01:00:49;98462.84;;;12.67
76901;BMP280;65859;43.020;25.096;2023-04-25T01:03:17;98458.72;;;12.28
76901;BMP280;65859;43.020;25.096;2023-04-25T01:05:45;98448.47;;;12.07
76901;BMP280;65859;43.020;25.096;2023-04-25T01:08:13;98449.09;;;12.19
76901;BMP280;65859;43.020;25.096;2023-04-25T01:10:39;98439.16;;;12.59
76901;BMP280;65859;43.020;25.096;2023-04-25T01:13:06;98433.78;;;12.78
76901;BMP280;65859;43.020;25.096;2023-04-25T01:15:32;98432.50;;;12.95
76901;BMP280;65859;43.020;25.096;2023-04-25T01:17:59;98427.88;;;12.23
76901;BMP280;65859;43.020;25.096;2023-04-25T01:20:27;98414.69;;;12.07
76901;BMP280;65859;43.020;25.096;2023-04-25T01:22:55;98406.94;;;11.99
76901;BMP280;65859;43.020;25.096;2023-04-25T01:25:23;98404.81;;;12.08
76901;BMP280;65859;43.020;25.096;2023-04-25T01:27:50;98411.19;;;12.45
76901;BMP280;65859;43.020;25.096;2023-04-25T01:30:17;98412.72;;;12.46
76901;BMP280;65859;43.020;25.096;2023-04-25T01:32:43;98408.66;;;12.53
76901;BMP280;65859;43.020;25.096;2023-04-25T01:35:11;98406.34;;;12.51
76901;BMP280;65859;43.020;25.096;2023-04-25T01:37:38;98399.13;;;12.52
76901;BMP280;65859;43.020;25.096;2023-04-25T01:40:05;98400.13;;;12.01
76901;BMP280;65859;43.020;25.096;2023-04-25T01:42:36;98404.97;;;11.96
76901;BMP280;65859;43.020;25.096;2023-04-25T01:45:04;98402.19;;;11.88
76901;BMP280;65859;43.020;25.096;2023-04-25T01:47:30;98391.41;;;11.81
76901;BMP280;65859;43.020;25.096;2023-04-25T01:49:57;98387.56;;;11.79
76901;BMP280;65859;43.020;25.096;2023-04-25T01:52:23;98377.69;;;11.99
76901;BMP280;65859;43.020;25.096;2023-04-25T01:54:50;98373.09;;;12.18
76901;BMP280;65859;43.020;25.096;2023-04-25T01:57:18;98376.81;;;12.14
76901;BMP280;65859;43.020;25.096;2023-04-25T01:59:45;98368.78;;;11.91
76901;BMP280;65859;43.020;25.096;2023-04-25T02:02:11;98366.00;;;12.03
76901;BMP280;65859;43.020;25.096;2023-04-25T02:04:38;98363.09;;;12.35
76901;BMP280;65859;43.020;25.096;2023-04-25T02:07:04;98361.75;;;12.44
76901;BMP280;65859;43.020;25.096;2023-04-25T02:09:30;98354.56;;;12.45
76901;BMP280;65859;43.020;25.096;2023-04-25T02:11:57;98357.25;;;12.26
76901;BMP280;65859;43.020;25.096;2023-04-25T02:14:23;98358.47;;;12.28
76901;BMP280;65859;43.020;25.096;2023-04-25T02:16:50;98360.44;;;11.89
76901;BMP280;65859;43.020;25.096;2023-04-25T02:19:17;98363.31;;;11.80
76901;BMP280;65859;43.020;25.096;2023-04-25T02:21:43;98359.47;;;11.58
76901;BMP280;65859;43.020;25.096;2023-04-25T02:24:10;98359.09;;;11.41
76901;BMP280;65859;43.020;25.096;2023-04-25T02:26:36;98366.03;;;11.29
76901;BMP280;65859;43.020;25.096;2023-04-25T02:29:04;98358.09;;;11.87
76901;BMP280;65859;43.020;25.096;2023-04-25T02:31:31;98365.63;;;12.05
76901;BMP280;65859;43.020;25.096;2023-04-25T02:33:58;98357.97;;;12.23
76901;BMP280;65859;43.020;25.096;2023-04-25T02:36:24;98362.69;;;12.33
76901;BMP280;65859;43.020;25.096;2023-04-25T02:38:50;98359.44;;;11.78
76901;BMP280;65859;43.020;25.096;2023-04-25T02:41:16;98354.81;;;11.75
76901;BMP280;65859;43.020;25.096;2023-04-25T02:43:43;98359.38;;;11.74
76901;BMP280;65859;43.020;25.096;2023-04-25T02:46:09;98358.41;;;12.05
76901;BMP280;65859;43.020;25.096;2023-04-25T02:48:35;98364.03;;;12.00
76901;BMP280;65859;43.020;25.096;2023-04-25T02:51:02;98361.19;;;11.51
76901;BMP280;65859;43.020;25.096;2023-04-25T02:53:29;98370.53;;;11.25
76901;BMP280;65859;43.020;25.096;2023-04-25T02:55:55;98373.88;;;11.22
76901;BMP280;65859;43.020;25.096;2023-04-25T02:58:24;98375.53;;;11.11
76901;BMP280;65859;43.020;25.096;2023-04-25T03:00:52;98380.53;;;10.97
76901;BMP280;65859;43.020;25.096;2023-04-25T03:03:18;98374.41;;;11.12
76901;BMP280;65859;43.020;25.096;2023-04-25T03:05:48;98368.28;;;11.47
76901;BMP280;65859;43.020;25.096;2023-04-25T03:08:14;98371.25;;;11.61
76901;BMP280;65859;43.020;25.096;2023-04-25T03:10:41;98368.63;;;11.80
76901;BMP280;65859;43.020;25.096;2023-04-25T03:13:07;98366.91;;;11.72
76901;BMP280;65859;43.020;25.096;2023-04-25T03:15:34;98367.28;;;11.51
76901;BMP280;65859;43.020;25.096;2023-04-25T03:18:01;98377.78;;;11.28
76901;BMP280;65859;43.020;25.096;2023-04-25T03:20:28;98367.19;;;11.48
76901;BMP280;65859;43.020;25.096;2023-04-25T03:22:54;98367.44;;;11.58
76901;BMP280;65859;43.020;25.096;2023-04-25T03:25:20;98370.94;;;11.27
76901;BMP280;65859;43.020;25.096;2023-04-25T03:27:47;98369.72;;;11.25
76901;BMP280;65859;43.020;25.096;2023-04-25T03:30:13;98373.03;;;11.18
76901;BMP280;65859;43.020;25.096;2023-04-25T03:32:41;98367.16;;;10.93
76901;BMP280;65859;43.020;25.096;2023-04-25T03:35:07;98365.91;;;11.06
76901;BMP280;65859;43.020;25.096;2023-04-25T03:37:34;98372.88;;;11.11
76901;BMP280;65859;43.020;25.096;2023-04-25T03:40:00;98372.63;;;11.00
76901;BMP280;65859;43.020;25.096;2023-04-25T03:42:26;98372.53;;;11.13
76901;BMP280;65859;43.020;25.096;2023-04-25T03:44:53;98363.91;;;11.35
76901;BMP280;65859;43.020;25.096;2023-04-25T03:47:19;98359.09;;;11.25
76901;BMP280;65859;43.020;25.096;2023-04-25T03:49:45;98369.88;;;11.13
76901;BMP280;65859;43.020;25.096;2023-04-25T03:52:12;98373.31;;;11.32
76901;BMP280;65859;43.020;25.096;2023-04-25T03:54:38;98363.75;;;11.67
76901;BMP280;65859;43.020;25.096;2023-04-25T03:57:04;98362.69;;;11.90
76901;BMP280;65859;43.020;25.096;2023-04-25T03:59:31;98363.34;;;12.03
76901;BMP280;65859;43.020;25.096;2023-04-25T04:01:57;98361.75;;;11.79
76901;BMP280;65859;43.020;25.096;2023-04-25T04:04:25;98360.03;;;11.90
76901;BMP280;65859;43.020;25.096;2023-04-25T04:06:51;98356.34;;;11.76
76901;BMP280;65859;43.020;25.096;2023-04-25T04:09:18;98367.75;;;12.18
76901;BMP280;65859;43.020;25.096;2023-04-25T04:11:46;98356.28;;;11.72
76901;BMP280;65859;43.020;25.096;2023-04-25T04:14:12;98365.19;;;12.22
76901;BMP280;65859;43.020;25.096;2023-04-25T04:16:39;98370.25;;;12.54
76901;BMP280;65859;43.020;25.096;2023-04-25T04:19:05;98376.22;;;12.70
76901;BMP280;65859;43.020;25.096;2023-04-25T04:21:32;98365.84;;;12.38
76901;BMP280;65859;43.020;25.096;2023-04-25T04:23:59;98365.69;;;12.08
76901;BMP280;65859;43.020;25.096;2023-04-25T04:26:26;98361.59;;;11.91
76901;BMP280;65859;43.020;25.096;2023-04-25T04:28:53;98365.56;;;12.01
76901;BMP280;65859;43.020;25.096;2023-04-25T04:31:21;98363.09;;;11.89
76901;BMP280;65859;43.020;25.096;2023-04-25T04:33:47;98365.31;;;11.87
76901;BMP280;65859;43.020;25.096;2023-04-25T04:36:16;98363.81;;;12.09
76901;BMP280;65859;43.020;25.096;2023-04-25T04:38:46;98364.00;;;12.42
76901;BMP280;65859;43.020;25.096;2023-04-25T04:41:12;98357.69;;;12.77
76901;BMP280;65859;43.020;25.096;2023-04-25T04:43:38;98362.94;;;12.47
76901;BMP280;65859;43.020;25.096;2023-04-25T04:46:05;98363.81;;;11.89
76901;BMP280;65859;43.020;25.096;2023-04-25T04:48:32;98364.91;;;12.50
76901;BMP280;65859;43.020;25.096;2023-04-25T04:51:00;98367.59;;;13.03
76901;BMP280;65859;43.020;25.096;2023-04-25T04:53:27;98365.13;;;13.17
76901;BMP280;65859;43.020;25.096;2023-04-25T04:55:54;98369.97;;;13.12
76901;BMP280;65859;43.020;25.096;2023-04-25T04:58:20;98371.84;;;13.38
76901;BMP280;65859;43.020;25.096;2023-04-25T05:00:46;98369.59;;;13.40
76901;BMP280;65859;43.020;25.096;2023-04-25T05:03:13;98372.06;;;13.25
76901;BMP280;65859;43.020;25.096;2023-04-25T05:05:39;98368.09;;;13.76
76901;BMP280;65859;43.020;25.096;2023-04-25T05:08:07;98352.69;;;13.96
76901;BMP280;65859;43.020;25.096;2023-04-25T05:10:34;98357.28;;;13.62
76901;BMP280;65859;43.020;25.096;2023-04-25T05:13:00;98364.53;;;12.52
76901;BMP280;65859;43.020;25.096;2023-04-25T05:15:27;98356.31;;;13.13
76901;BMP280;65859;43.020;25.096;2023-04-25T05:17:53;98361.03;;;13.53
76901;BMP280;65859;43.020;25.096;2023-04-25T05:20:19;98363.34;;;12.49
76901;BMP280;65859;43.020;25.096;2023-04-25T05:22:46;98364.78;;;12.66
76901;BMP280;65859;43.020;25.096;2023-04-25T05:25:12;98365.84;;;12.61
76901;BMP280;65859;43.020;25.096;2023-04-25T05:27:38;98376.19;;;12.66
76901;BMP280;65859;43.020;25.096;2023-04-25T05:30:05;98371.63;;;12.93
76901;BMP280;65859;43.020;25.096;2023-04-25T05:32:32;98371.91;;;12.62
76901;BMP280;65859;43.020;25.096;2023-04-25T05:34:58;98363.81;;;13.08
76901;BMP280;65859;43.020;25.096;2023-04-25T05:37:25;98365.28;;;13.62
76901;BMP280;65859;43.020;25.096;2023-04-25T05:39:53;98364.97;;;14.04
76901;BMP280;65859;43.020;25.096;2023-04-25T05:42:20;98374.41;;;14.38
76901;BMP280;65859;43.020;25.096;2023-04-25T05:44:46;98370.69;;;14.54
76901;BMP280;65859;43.020;25.096;2023-04-25T05:47:13;98379.00;;;14.41
76901;BMP280;65859;43.020;25.096;2023-04-25T05:49:39;98373.50;;;14.71
76901;BMP280;65859;43.020;25.096;2023-04-25T05:52:05;98381.16;;;14.25
76901;BMP280;65859;43.020;25.096;2023-04-25T05:54:32;98381.44;;;13.76
76901;BMP280;65859;43.020;25.096;2023-04-25T05:56:58;98384.75;;;13.66
76901;BMP280;65859;43.020;25.096;2023-04-25T05:59:24;98384.31;;;13.64
76901;BMP280;65859;43.020;25.096;2023-04-25T06:01:51;98377.78;;;13.91
76901;BMP280;65859;43.020;25.096;2023-04-25T06:04:17;98383.81;;;13.84
76901;BMP280;65859;43.020;25.096;2023-04-25T06:06:44;98397.97;;;14.81
76901;BMP280;65859;43.020;25.096;2023-04-25T06:09:10;98386.47;;;15.39
76901;BMP280;65859;43.020;25.096;2023-04-25T06:11:41;98374.91;;;14.10
76901;BMP280;65859;43.020;25.096;2023-04-25T06:14:07;98376.66;;;14.33
76901;BMP280;65859;43.020;25.096;2023-04-25T06:16:34;98375.34;;;15.22
76901;BMP280;65859;43.020;25.096;2023-04-25T06:19:00;98364.22;;;15.20
76901;BMP280;65859;43.020;25.096;2023-04-25T06:21:26;98366.25;;;15.48
76901;BMP280;65859;43.020;25.096;2023-04-25T06:23:53;98370.09;;;15.51
76901;BMP280;65859;43.020;25.096;2023-04-25T06:26:20;98375.16;;;15.84
76901;BMP280;65859;43.020;25.096;2023-04-25T06:28:46;98372.38;;;14.25
76901;BMP280;65859;43.020;25.096;2023-04-25T06:31:12;98376.59;;;14.29
76901;BMP280;65859;43.020;25.096;2023-04-25T06:33:39;98377.88;;;14.97
76901;BMP280;65859;43.020;25.096;2023-04-25T06:36:05;98377.78;;;15.70
76901;BMP280;65859;43.020;25.096;2023-04-25T06:38:32;98372.84;;;15.86
76901;BMP280;65859;43.020;25.096;2023-04-25T06:40:58;98379.34;;;14.91
76901;BMP280;65859;43.020;25.096;2023-04-25T06:43:26;98385.88;;;16.27
76901;BMP280;65859;43.020;25.096;2023-04-25T06:45:52;98377.41;;;16.61
76901;BMP280;65859;43.020;25.096;2023-04-25T06:48:18;98366.34;;;15.91
76901;BMP280;65859;43.020;25.096;2023-04-25T06:50:45;98379.00;;;16.19
76901;BMP280;65859;43.020;25.096;2023-04-25T06:53:11;98373.63;;;16.01
76901;BMP280;65859;43.020;25.096;2023-04-25T06:55:38;98375.06;;;16.98
76901;BMP280;65859;43.020;25.096;2023-04-25T06:58:04;98392.75;;;16.00
76901;BMP280;65859;43.020;25.096;2023-04-25T07:00:31;98379.16;;;17.28
76901;BMP280;65859;43.020;25.096;2023-04-25T07:02:58;98369.66;;;18.31
76901;BMP280;65859;43.020;25.096;2023-04-25T07:05:24;98381.25;;;16.67
76901;BMP280;65859;43.020;25.096;2023-04-25T07:07:50;98381.25;;;16.60
76901;BMP280;65859;43.020;25.096;2023-04-25T07:10:17;98388.03;;;18.73
76901;BMP280;65859;43.020;25.096;2023-04-25T07:12:43;98388.19;;;19.81
76901;BMP280;65859;43.020;25.096;2023-04-25T07:15:11;98384.13;;;19.96
76901;BMP280;65859;43.020;25.096;2023-04-25T07:17:38;98388.28;;;20.01
76901;BMP280;65859;43.020;25.096;2023-04-25T07:20:05;98378.81;;;19.89
76901;BMP280;65859;43.020;25.096;2023-04-25T07:22:34;98381.88;;;20.15
76901;BMP280;65859;43.020;25.096;2023-04-25T07:25:01;98372.00;;;18.28
76901;BMP280;65859;43.020;25.096;2023-04-25T07:27:27;98373.22;;;18.58
76901;BMP280;65859;43.020;25.096;2023-04-25T07:29:54;98378.22;;;18.60
76901;BMP280;65859;43.020;25.096;2023-04-25T07:32:20;98379.56;;;20.17
76901;BMP280;65859;43.020;25.096;2023-04-25T07:34:47;98371.09;;;20.15
76901;BMP280;65859;43.020;25.096;2023-04-25T07:37:13;98372.22;;;21.16
76901;BMP280;65859;43.020;25.096;2023-04-25T07:39:40;98371.13;;;19.10
76901;BMP280;65859;43.020;25.096;2023-04-25T07:42:07;98369.78;;;18.92
76901;BMP280;65859;43.020;25.096;2023-04-25T07:44:36;98372.25;;;19.90
76901;BMP280;65859;43.020;25.096;2023-04-25T07:47:08;98367.28;;;20.35
76901;BMP280;65859;43.020;25.096;2023-04-25T07:49:35;98365.00;;;20.54
76901;BMP280;65859;43.020;25.096;2023-04-25T07:52:03;98363.66;;;21.54
76901;BMP280;65859;43.020;25.096;2023-04-25T07:54:29;98369.91;;;21.51
76901;BMP280;65859;43.020;25.096;2023-04-25T07:56:56;98362.91;;;19.98
76901;BMP280;65859;43.020;25.096;2023-04-25T07:59:23;98360.78;;;19.86
76901;BMP280;65859;43.020;25.096;2023-04-25T08:01:49;98352.44;;;20.24
76901;BMP280;65859;43.020;25.096;2023-04-25T08:04:16;98343.38;;;20.77
76901;BMP280;65859;43.020;25.096;2023-04-25T08:06:43;98367.56;;;19.94
76901;BMP280;65859;43.020;25.096;2023-04-25T08:09:09;98352.69;;;21.61
76901;BMP280;65859;43.020;25.096;2023-04-25T08:11:36;98349.03;;;21.19
76901;BMP280;65859;43.020;25.096;2023-04-25T08:14:03;98343.81;;;21.93
76901;BMP280;65859;43.020;25.096;2023-04-25T08:16:29;98345.47;;;22.86
76901;BMP280;65859;43.020;25.096;2023-04-25T08:18:58;98354.00;;;23.96
76901;BMP280;65859;43.020;25.096;2023-04-25T08:21:24;98342.53;;;22.55
76901;BMP280;65859;43.020;25.096;2023-04-25T08:23:53;98347.97;;;23.19
76901;BMP280;65859;43.020;25.096;2023-04-25T08:26:19;98352.53;;;24.16
76901;BMP280;65859;43.020;25.096;2023-04-25T08:28:46;98352.50;;;25.00
76901;BMP280;65859;43.020;25.096;2023-04-25T08:31:13;98332.50;;;23.32
76901;BMP280;65859;43.020;25.096;2023-04-25T08:33:39;98333.78;;;21.45
76901;BMP280;65859;43.020;25.096;2023-04-25T08:36:05;98352.81;;;20.46
76901;BMP280;65859;43.020;25.096;2023-04-25T08:38:32;98386.97;;;19.01
76901;BMP280;65859;43.020;25.096;2023-04-25T08:41:00;98400.03;;;16.53
76901;BMP280;65859;43.020;25.096;2023-04-25T08:43:30;98431.63;;;14.89
76901;BMP280;65859;43.020;25.096;2023-04-25T08:46:00;98404.38;;;15.31
76901;BMP280;65859;43.020;25.096;2023-04-25T08:48:33;98394.31;;;16.58
76901;BMP280;65859;43.020;25.096;2023-04-25T08:51:03;98384.34;;;16.69
76901;BMP280;65859;43.020;25.096;2023-04-25T08:53:33;98379.00;;;16.37
76901;BMP280;65859;43.020;25.096;2023-04-25T08:56:01;98379.75;;;16.48
76901;BMP280;65859;43.020;25.096;2023-04-25T08:58:28;98381.25;;;16.70
76901;BMP280;65859;43.020;25.096;2023-04-25T09:00:55;98378.88;;;16.97
76901;BMP280;65859;43.020;25.096;2023-04-25T09:03:21;98379.91;;;17.98
76901;BMP280;65859;43.020;25.096;2023-04-25T09:05:48;98401.19;;;19.02
76901;BMP280;65859;43.020;25.096;2023-04-25T09:08:16;98402.47;;;20.88
76901;BMP280;65859;43.020;25.096;2023-04-25T09:10:42;98392.56;;;19.71
76901;BMP280;65859;43.020;25.096;2023-04-25T09:13:14;98390.06;;;18.62
76901;BMP280;65859;43.020;25.096;2023-04-25T09:15:48;98400.06;;;18.20
76901;BMP280;65859;43.020;25.096;2023-04-25T09:18:26;98395.19;;;18.08
76901;BMP280;65859;43.020;25.096;2023-04-25T09:20:57;98391.56;;;17.74
76901;BMP280;65859;43.020;25.096;2023-04-25T09:23:25;98388.63;;;17.54
76901;BMP280;65859;43.020;25.096;2023-04-25T09:25:53;98378.63;;;16.38
76901;BMP280;65859;43.020;25.096;2023-04-25T09:28:26;98360.97;;;16.76
76901;BMP280;65859;43.020;25.096;2023-04-25T09:30:57;98371.13;;;17.31
76901;BMP280;65859;43.020;25.096;2023-04-25T09:33:31;98357.09;;;16.95
76901;BMP280;65859;43.020;25.096;2023-04-25T09:36:08;98350.56;;;17.00
76901;BMP280;65859;43.020;25.096;2023-04-25T09:38:43;98357.06;;;17.06
76901;BMP280;65859;43.020;25.096;2023-04-25T09:41:10;98365.19;;;17.61
76901;BMP280;65859;43.020;25.096;2023-04-25T09:43:38;98360.13;;;17.74
76901;BMP280;65859;43.020;25.096;2023-04-25T09:46:09;98387.63;;;19.09
76901;BMP280;65859;43.020;25.096;2023-04-25T09:48:37;98379.28;;;19.84
76901;BMP280;65859;43.020;25.096;2023-04-25T09:51:07;98375.91;;;18.17
76901;BMP280;65859;43.020;25.096;2023-04-25T09:53:43;98379.97;;;17.87
76901;BMP280;65859;43.020;25.096;2023-04-25T09:56:11;98388.47;;;17.79
76901;BMP280;65859;43.020;25.096;2023-04-25T09:58:39;98385.72;;;17.89
76901;BMP280;65859;43.020;25.096;2023-04-25T10:01:10;98394.94;;;17.85
76901;BMP280;65859;43.020;25.096;2023-04-25T10:03:40;98409.75;;;20.04
76901;BMP280;65859;43.020;25.096;2023-04-25T10:06:09;98416.81;;;19.41
76901;BMP280;65859;43.020;25.096;2023-04-25T10:08:38;98439.13;;;22.55
76901;BMP280;65859;43.020;25.096;2023-04-25T10:11:06;98391.16;;;20.77
76901;BMP280;65859;43.020;25.096;2023-04-25T10:13:34;98417.72;;;19.88
76901;BMP280;65859;43.020;25.096;2023-04-25T10:16:02;98363.94;;;17.80
76901;BMP280;65859;43.020;25.096;2023-04-25T10:18:31;98374.22;;;18.75
76901;BMP280;65859;43.020;25.096;2023-04-25T10:21:01;98364.97;;;18.42
76901;BMP280;65859;43.020;25.096;2023-04-25T10:23:30;98346.56;;;18.37
76901;BMP280;65859;43.020;25.096;2023-04-25T10:25:58;98346.22;;;18.35
76901;BMP280;65859;43.020;25.096;2023-04-25T10:28:25;98387.69;;;22.84
76901;BMP280;65859;43.020;25.096;2023-04-25T10:31:01;98369.41;;;21.72
76901;BMP280;65859;43.020;25.096;2023-04-25T10:33:36;98363.91;;;20.51
76901;BMP280;65859;43.020;25.096;2023-04-25T10:36:18;98333.78;;;21.28
76901;BMP280;65859;43.020;25.096;2023-04-25T10:38:45;98331.75;;;20.40
76901;BMP280;65859;43.020;25.096;2023-04-25T10:41:13;98361.59;;;21.09
76901;BMP280;65859;43.020;25.096;2023-04-25T10:43:43;98355.91;;;21.40
76901;BMP280;65859;43.020;25.096;2023-04-25T10:46:26;98335.53;;;22.00
76901;BMP280;65859;43.020;25.096;2023-04-25T10:48:54;98321.78;;;23.29
76901;BMP280;65859;43.020;25.096;2023-04-25T10:56:38;98312.75;;;23.32
76901;BMP280;65859;43.020;25.096;2023-04-25T10:59:10;98312.72;;;24.35
76901;BMP280;65859;43.020;25.096;2023-04-25T11:01:44;98309.72;;;23.55
76901;BMP280;65859;43.020;25.096;2023-04-25T11:07:23;98309.97;;;22.97
76901;BMP280;65859;43.020;25.096;2023-04-25T11:09:52;98309.47;;;22.22
76901;BMP280;65859;43.020;25.096;2023-04-25T11:12:19;98287.19;;;21.89
76901;BMP280;65859;43.020;25.096;2023-04-25T11:14:45;98266.97;;;21.94
76901;BMP280;65859;43.020;25.096;2023-04-25T11:17:11;98271.06;;;22.15
76901;BMP280;65859;43.020;25.096;2023-04-25T11:19:38;98276.00;;;22.16
76901;BMP280;65859;43.020;25.096;2023-04-25T11:22:04;98282.16;;;23.22
76901;BMP280;65859;43.020;25.096;2023-04-25T11:24:33;98275.75;;;24.60
76901;BMP280;65859;43.020;25.096;2023-04-25T11:27:04;98274.41;;;24.02
76901;BMP280;65859;43.020;25.096;2023-04-25T11:29:32;98257.09;;;23.31
76901;BMP280;65859;43.020;25.096;2023-04-25T11:32:00;98241.06;;;21.96
76901;BMP280;65859;43.020;25.096;2023-04-25T11:34:31;98247.06;;;21.88
76901;BMP280;65859;43.020;25.096;2023-04-25T11:36:59;98243.66;;;21.71
76901;BMP280;65859;43.020;25.096;2023-04-25T11:39:26;98231.38;;;20.72
76901;BMP280;65859;43.020;25.096;2023-04-25T11:41:53;98234.19;;;20.29
76901;BMP280;65859;43.020;25.096;2023-04-25T11:44:20;98228.59;;;20.00
76901;BMP280;65859;43.020;25.096;2023-04-25T11:46:47;98230.72;;;19.89
76901;BMP280;65859;43.020;25.096;2023-04-25T11:49:14;98236.41;;;19.71
76901;BMP280;65859;43.020;25.096;2023-04-25T11:51:42;98247.16;;;19.52
76901;BMP280;65859;43.020;25.096;2023-04-25T11:54:09;98259.03;;;19.27
76901;BMP280;65859;43.020;25.096;2023-04-25T11:56:36;98276.84;;;18.91
76901;BMP280;65859;43.020;25.096;2023-04-25T11:59:05;98288.31;;;18.34
76901;BMP280;65859;43.020;25.096;2023-04-25T12:01:37;98280.94;;;17.52
76901;BMP280;65859;43.020;25.096;2023-04-25T12:04:14;98298.91;;;16.89
76901;BMP280;65859;43.020;25.096;2023-04-25T12:06:43;98298.25;;;16.56
76901;BMP280;65859;43.020;25.096;2023-04-25T12:09:11;98278.16;;;17.11
76901;BMP280;65859;43.020;25.096;2023-04-25T12:11:44;98290.97;;;17.37
76901;BMP280;65859;43.020;25.096;2023-04-25T12:14:11;98302.41;;;17.48
76901;BMP280;65859;43.020;25.096;2023-04-25T12:16:42;98295.00;;;17.66
76901;BMP280;65859;43.020;25.096;2023-04-25T12:19:09;98297.38;;;18.43
76901;BMP280;65859;43.020;25.096;2023-04-25T12:21:36;98283.75;;;17.86
76901;BMP280;65859;43.020;25.096;2023-04-25T12:24:11;98275.56;;;18.00
76901;BMP280;65859;43.020;25.096;2023-04-25T12:27:04;98259.44;;;18.41
76901;BMP280;65859;43.020;25.096;2023-04-25T12:29:33;98262.28;;;18.27
76901;BMP280;65859;43.020;25.096;2023-04-25T12:32:01;98261.28;;;18.44
76901;BMP280;65859;43.020;25.096;2023-04-25T12:34:31;98250.34;;;18.93
76901;BMP280;65859;43.020;25.096;2023-04-25T12:36:58;98239.66;;;19.63
76901;BMP280;65859;43.020;25.096;2023-04-25T12:39:25;98249.81;;;19.98
76901;BMP280;65859;43.020;25.096;2023-04-25T12:41:52;98257.00;;;20.25
76901;BMP280;65859;43.020;25.096;2023-04-25T12:44:20;98258.63;;;20.38
76901;BMP280;65859;43.020;25.096;2023-04-25T12:46:47;98254.31;;;19.62
76901;BMP280;65859;43.020;25.096;2023-04-25T12:49:14;98249.13;;;19.71
76901;BMP280;65859;43.020;25.096;2023-04-25T12:51:40;98259.53;;;19.69
76901;BMP280;65859;43.020;25.096;2023-04-25T12:54:08;98259.66;;;18.54
76901;BMP280;65859;43.020;25.096;2023-04-25T12:56:35;98266.28;;;18.46
76901;BMP280;65859;43.020;25.096;2023-04-25T12:59:02;98262.94;;;18.35
76901;BMP280;65859;43.020;25.096;2023-04-25T13:01:30;98268.97;;;17.63
76901;BMP280;65859;43.020;25.096;2023-04-25T13:03:56;98263.91;;;17.17
76901;BMP280;65859;43.020;25.096;2023-04-25T13:06:23;98263.78;;;17.42
76901;BMP280;65859;43.020;25.096;2023-04-25T13:08:49;98272.22;;;17.89
76901;BMP280;65859;43.020;25.096;2023-04-25T13:11:16;98265.22;;;17.98
76901;BMP280;65859;43.020;25.096;2023-04-25T13:13:43;98262.16;;;17.52
76901;BMP280;65859;43.020;25.096;2023-04-25T13:16:09;98269.38;;;17.03
76901;BMP280;65859;43.020;25.096;2023-04-25T13:18:36;98264.41;;;16.98
76901;BMP280;65859;43.020;25.096;2023-04-25T13:21:02;98257.84;;;17.10
76901;BMP280;65859;43.020;25.096;2023-04-25T13:23:29;98262.22;;;16.75
76901;BMP280;65859;43.020;25.096;2023-04-25T13:25:57;98261.44;;;16.71
76901;BMP280;65859;43.020;25.096;2023-04-25T13:28:27;98266.34;;;16.94
76901;BMP280;65859;43.020;25.096;2023-04-25T13:30:53;98263.81;;;17.38
76901;BMP280;65859;43.020;25.096;2023-04-25T13:33:21;98273.00;;;17.34
76901;BMP280;65859;43.020;25.096;2023-04-25T13:35:49;98281.88;;;17.31
76901;BMP280;65859;43.020;25.096;2023-04-25T13:38:24;98273.72;;;17.45
76901;BMP280;65859;43.020;25.096;2023-04-25T13:40:52;98268.44;;;17.34
76901;BMP280;65859;43.020;25.096;2023-04-25T13:43:20;98317.81;;;17.92
76901;BMP280;65859;43.020;25.096;2023-04-25T13:45:48;98369.00;;;16.84
76901;BMP280;65859;43.020;25.096;2023-04-25T13:48:14;98364.91;;;15.03
76901;BMP280;65859;43.020;25.096;2023-04-25T13:50:41;98374.47;;;14.01
76901;BMP280;65859;43.020;25.096;2023-04-25T13:53:07;98377.16;;;13.68
76901;BMP280;65859;43.020;25.096;2023-04-25T13:55:34;98395.28;;;13.88
76901;BMP280;65859;43.020;25.096;2023-04-25T13:58:04;98388.88;;;13.59
76901;BMP280;65859;43.020;25.096;2023-04-25T14:00:35;98381.44;;;13.16
76901;BMP280;65859;43.020;25.096;2023-04-25T14:03:03;98377.06;;;13.94
76901;BMP280;65859;43.020;25.096;2023-04-25T14:05:35;98364.69;;;13.79
76901;BMP280;65859;43.020;25.096;2023-04-25T14:08:08;98363.06;;;14.49